Port Vila Bauerfield Airport
NVVV : now visible

Aeroporto :











RITROVATECI SU...

 
LOGIN :

Iscrizione | Disclaimer

   EN    FR    IT 

 









Sommario :    VFR   VFR Marginale   IFR   IFR Intensivo   IFR Molto Intensivo
Visibilità : 
Base nubi : 
>= 8 km
>= 3000ft
5 / 8 km
1000 / 3000 ft
1500m / 5 km
500 / 1000 ft
800 / 1500m
200 / 500 ft
< 800m
< 200 ft
Simboli :   Temporali  Nebbia  Neve Forte  Precipitazioni Forti  Vento > 20 kt






- Altitudine del aeroporto : 70 ft
- Codice IATA : VLI


NVVV - Port Vila Bauerfield

ULTIMO METAR :
  • 252100Z 12007KT 9999 SCT025 24/22 Q1017

METARs OBSOLETI :
  • 252000Z 04001KT 9999 FEW020 BKN300 21/21 Q1017
  • 251900Z 08002KT 9999 FEW020 21/20 Q1017
  • 251800Z 00000KT 9999 FEW020 21/21 Q1016

TAF TAF NVVV
Valido dal 25 a 18 ore il 26 a 18 ore UTC


251600Z 2518/2618 VRB02KT 9999 FEW020 BKN040 INTER 2518/2524 9000 -SHRA BKN018
FIR NFFF / Oceania



MetMap, La meteo Aeronautica in un colpo d'occhio ! - Copyright ORBIFLY Dicembre 2007 - Disclaimer

ORBIFLY MET'MAP TEAM :

Programmazione e sviluppo : Alexandra Zaïnal
Concezione : Baudouin d'Aumeries
Aiuto per la programmazione : Marc-Olivier Méhu
Supporto tecnico e logistico : Manuel Goepfert
Aiuto per la traduzione : Arnaldo La Scala

Contatto : metmap@orbifly.com




FONTI E CREDITI :

   NOAA       Earth
Advisory